sensor_id;sensor_type;location;lat;lon;timestamp;P1;durP1;ratioP1;P2;durP2;ratioP2
11111;SDS011;5609;49.466;8.468;2023-07-31T00:01:56;3.63;;;1.53;;
11111;SDS011;5609;49.466;8.468;2023-07-31T00:04:23;4.87;;;2.10;;
11111;SDS011;5609;49.466;8.468;2023-07-31T00:06:50;2.50;;;1.60;;
11111;SDS011;5609;49.466;8.468;2023-07-31T00:09:17;4.90;;;1.90;;
11111;SDS011;5609;49.466;8.468;2023-07-31T00:11:44;3.00;;;1.90;;
11111;SDS011;5609;49.466;8.468;2023-07-31T00:14:11;3.50;;;1.77;;
11111;SDS011;5609;49.466;8.468;2023-07-31T00:16:39;3.77;;;1.80;;
11111;SDS011;5609;49.466;8.468;2023-07-31T00:19:06;2.90;;;1.60;;
11111;SDS011;5609;49.466;8.468;2023-07-31T00:21:33;4.53;;;1.80;;
11111;SDS011;5609;49.466;8.468;2023-07-31T00:24:00;3.07;;;1.67;;
11111;SDS011;5609;49.466;8.468;2023-07-31T00:26:27;2.70;;;1.53;;
11111;SDS011;5609;49.466;8.468;2023-07-31T00:28:54;4.13;;;1.80;;
11111;SDS011;5609;49.466;8.468;2023-07-31T00:31:21;4.27;;;1.97;;
11111;SDS011;5609;49.466;8.468;2023-07-31T00:33:49;3.90;;;1.60;;
11111;SDS011;5609;49.466;8.468;2023-07-31T00:36:16;3.47;;;1.70;;
11111;SDS011;5609;49.466;8.468;2023-07-31T00:38:43;4.03;;;1.90;;
11111;SDS011;5609;49.466;8.468;2023-07-31T00:41:10;3.27;;;1.73;;
11111;SDS011;5609;49.466;8.468;2023-07-31T00:43:37;4.23;;;1.90;;
11111;SDS011;5609;49.466;8.468;2023-07-31T00:46:04;3.13;;;1.80;;
11111;SDS011;5609;49.466;8.468;2023-07-31T00:48:31;4.00;;;1.97;;
11111;SDS011;5609;49.466;8.468;2023-07-31T00:51:00;3.57;;;1.70;;
11111;SDS011;5609;49.466;8.468;2023-07-31T00:53:27;3.47;;;1.80;;
11111;SDS011;5609;49.466;8.468;2023-07-31T00:55:54;4.80;;;2.10;;
11111;SDS011;5609;49.466;8.468;2023-07-31T00:58:21;4.73;;;1.90;;
11111;SDS011;5609;49.466;8.468;2023-07-31T01:00:48;3.73;;;1.90;;
11111;SDS011;5609;49.466;8.468;2023-07-31T01:03:16;5.70;;;1.90;;
11111;SDS011;5609;49.466;8.468;2023-07-31T01:05:46;4.30;;;2.03;;
11111;SDS011;5609;49.466;8.468;2023-07-31T01:08:18;4.27;;;1.97;;
11111;SDS011;5609;49.466;8.468;2023-07-31T01:10:50;3.47;;;2.00;;
11111;SDS011;5609;49.466;8.468;2023-07-31T01:13:18;5.10;;;2.20;;
11111;SDS011;5609;49.466;8.468;2023-07-31T01:15:46;3.57;;;1.80;;
11111;SDS011;5609;49.466;8.468;2023-07-31T01:18:13;3.87;;;1.90;;
11111;SDS011;5609;49.466;8.468;2023-07-31T01:20:40;4.93;;;2.33;;
11111;SDS011;5609;49.466;8.468;2023-07-31T01:23:13;4.57;;;2.00;;
11111;SDS011;5609;49.466;8.468;2023-07-31T01:25:54;5.47;;;2.07;;
11111;SDS011;5609;49.466;8.468;2023-07-31T01:28:23;3.93;;;1.83;;
11111;SDS011;5609;49.466;8.468;2023-07-31T01:30:52;5.40;;;2.10;;
11111;SDS011;5609;49.466;8.468;2023-07-31T01:33:21;5.80;;;2.20;;
11111;SDS011;5609;49.466;8.468;2023-07-31T01:35:48;4.93;;;1.90;;
11111;SDS011;5609;49.466;8.468;2023-07-31T01:38:20;5.43;;;2.17;;
11111;SDS011;5609;49.466;8.468;2023-07-31T01:40:48;4.00;;;1.93;;
11111;SDS011;5609;49.466;8.468;2023-07-31T01:43:18;5.20;;;2.30;;
11111;SDS011;5609;49.466;8.468;2023-07-31T01:45:45;3.83;;;2.20;;
11111;SDS011;5609;49.466;8.468;2023-07-31T01:48:12;6.33;;;2.00;;
11111;SDS011;5609;49.466;8.468;2023-07-31T01:50:39;4.23;;;1.90;;
11111;SDS011;5609;49.466;8.468;2023-07-31T01:53:07;4.90;;;2.03;;
11111;SDS011;5609;49.466;8.468;2023-07-31T01:55:34;4.23;;;2.10;;
11111;SDS011;5609;49.466;8.468;2023-07-31T01:58:01;3.67;;;1.87;;
11111;SDS011;5609;49.466;8.468;2023-07-31T02:00:29;4.47;;;2.10;;
11111;SDS011;5609;49.466;8.468;2023-07-31T02:02:55;4.23;;;2.10;;
11111;SDS011;5609;49.466;8.468;2023-07-31T02:05:22;5.03;;;2.37;;
11111;SDS011;5609;49.466;8.468;2023-07-31T02:07:49;4.17;;;1.73;;
11111;SDS011;5609;49.466;8.468;2023-07-31T02:10:16;4.13;;;2.13;;
11111;SDS011;5609;49.466;8.468;2023-07-31T02:12:43;3.30;;;2.10;;
11111;SDS011;5609;49.466;8.468;2023-07-31T02:15:10;3.80;;;2.20;;
11111;SDS011;5609;49.466;8.468;2023-07-31T02:17:39;5.10;;;2.00;;
11111;SDS011;5609;49.466;8.468;2023-07-31T02:20:06;3.67;;;2.03;;
11111;SDS011;5609;49.466;8.468;2023-07-31T02:22:34;3.93;;;2.20;;
11111;SDS011;5609;49.466;8.468;2023-07-31T02:25:01;4.53;;;2.00;;
11111;SDS011;5609;49.466;8.468;2023-07-31T02:27:28;4.50;;;2.30;;
11111;SDS011;5609;49.466;8.468;2023-07-31T02:29:55;3.17;;;1.90;;
11111;SDS011;5609;49.466;8.468;2023-07-31T02:32:24;5.87;;;2.27;;
11111;SDS011;5609;49.466;8.468;2023-07-31T02:34:52;5.07;;;2.13;;
11111;SDS011;5609;49.466;8.468;2023-07-31T02:37:19;3.80;;;2.20;;
11111;SDS011;5609;49.466;8.468;2023-07-31T02:39:46;4.77;;;2.20;;
11111;SDS011;5609;49.466;8.468;2023-07-31T02:42:14;4.10;;;2.20;;
11111;SDS011;5609;49.466;8.468;2023-07-31T02:44:41;4.30;;;2.10;;
11111;SDS011;5609;49.466;8.468;2023-07-31T02:47:08;3.77;;;1.97;;
11111;SDS011;5609;49.466;8.468;2023-07-31T02:49:35;4.07;;;2.10;;
11111;SDS011;5609;49.466;8.468;2023-07-31T02:52:03;4.73;;;1.90;;
11111;SDS011;5609;49.466;8.468;2023-07-31T02:54:30;5.00;;;2.10;;
11111;SDS011;5609;49.466;8.468;2023-07-31T02:56:57;5.77;;;2.37;;
11111;SDS011;5609;49.466;8.468;2023-07-31T02:59:24;3.57;;;2.07;;
11111;SDS011;5609;49.466;8.468;2023-07-31T03:01:51;4.43;;;2.30;;
11111;SDS011;5609;49.466;8.468;2023-07-31T03:04:19;3.97;;;2.13;;
11111;SDS011;5609;49.466;8.468;2023-07-31T03:06:46;4.90;;;2.30;;
11111;SDS011;5609;49.466;8.468;2023-07-31T03:09:14;5.83;;;2.20;;
11111;SDS011;5609;49.466;8.468;2023-07-31T03:11:41;4.07;;;2.40;;
11111;SDS011;5609;49.466;8.468;2023-07-31T03:14:08;5.40;;;2.53;;
11111;SDS011;5609;49.466;8.468;2023-07-31T03:16:35;4.73;;;2.20;;
11111;SDS011;5609;49.466;8.468;2023-07-31T03:19:02;3.57;;;2.20;;
11111;SDS011;5609;49.466;8.468;2023-07-31T03:21:29;4.40;;;2.20;;
11111;SDS011;5609;49.466;8.468;2023-07-31T03:23:56;5.50;;;2.40;;
11111;SDS011;5609;49.466;8.468;2023-07-31T03:26:25;4.40;;;2.03;;
11111;SDS011;5609;49.466;8.468;2023-07-31T03:28:52;3.73;;;2.27;;
11111;SDS011;5609;49.466;8.468;2023-07-31T03:31:19;5.07;;;2.30;;
11111;SDS011;5609;49.466;8.468;2023-07-31T03:33:46;4.00;;;2.20;;
11111;SDS011;5609;49.466;8.468;2023-07-31T03:36:13;3.53;;;2.07;;
11111;SDS011;5609;49.466;8.468;2023-07-31T03:38:40;4.17;;;2.33;;
11111;SDS011;5609;49.466;8.468;2023-07-31T03:41:07;5.63;;;2.50;;
11111;SDS011;5609;49.466;8.468;2023-07-31T03:43:36;5.43;;;2.80;;
11111;SDS011;5609;49.466;8.468;2023-07-31T03:46:03;7.83;;;2.50;;
11111;SDS011;5609;49.466;8.468;2023-07-31T03:48:30;5.30;;;2.50;;
11111;SDS011;5609;49.466;8.468;2023-07-31T03:50:57;4.27;;;1.93;;
11111;SDS011;5609;49.466;8.468;2023-07-31T03:53:24;4.77;;;2.07;;
11111;SDS011;5609;49.466;8.468;2023-07-31T03:55:52;4.47;;;2.43;;
11111;SDS011;5609;49.466;8.468;2023-07-31T03:58:19;4.73;;;2.43;;
11111;SDS011;5609;49.466;8.468;2023-07-31T04:00:47;3.60;;;2.30;;
11111;SDS011;5609;49.466;8.468;2023-07-31T04:03:14;4.23;;;2.50;;
11111;SDS011;5609;49.466;8.468;2023-07-31T04:05:41;4.33;;;2.10;;
11111;SDS011;5609;49.466;8.468;2023-07-31T04:08:08;4.77;;;2.40;;
11111;SDS011;5609;49.466;8.468;2023-07-31T04:10:35;3.57;;;2.50;;
11111;SDS011;5609;49.466;8.468;2023-07-31T04:13:02;6.27;;;2.50;;
11111;SDS011;5609;49.466;8.468;2023-07-31T04:15:29;5.40;;;2.63;;
11111;SDS011;5609;49.466;8.468;2023-07-31T04:17:58;5.33;;;2.47;;
11111;SDS011;5609;49.466;8.468;2023-07-31T04:20:25;4.53;;;2.30;;
11111;SDS011;5609;49.466;8.468;2023-07-31T04:22:52;3.83;;;2.53;;
11111;SDS011;5609;49.466;8.468;2023-07-31T04:25:19;3.77;;;2.27;;
11111;SDS011;5609;49.466;8.468;2023-07-31T04:27:46;5.23;;;2.37;;
11111;SDS011;5609;49.466;8.468;2023-07-31T04:30:13;6.07;;;2.27;;
11111;SDS011;5609;49.466;8.468;2023-07-31T04:32:40;4.20;;;2.20;;
11111;SDS011;5609;49.466;8.468;2023-07-31T04:35:08;4.97;;;2.67;;
11111;SDS011;5609;49.466;8.468;2023-07-31T04:37:36;4.57;;;2.33;;
11111;SDS011;5609;49.466;8.468;2023-07-31T04:40:03;5.47;;;2.47;;
11111;SDS011;5609;49.466;8.468;2023-07-31T04:42:30;4.37;;;2.30;;
11111;SDS011;5609;49.466;8.468;2023-07-31T04:44:57;4.00;;;2.27;;
11111;SDS011;5609;49.466;8.468;2023-07-31T04:47:24;5.77;;;2.20;;
11111;SDS011;5609;49.466;8.468;2023-07-31T04:49:51;5.47;;;2.40;;
11111;SDS011;5609;49.466;8.468;2023-07-31T04:52:20;5.60;;;2.47;;
11111;SDS011;5609;49.466;8.468;2023-07-31T04:54:47;4.17;;;2.70;;
11111;SDS011;5609;49.466;8.468;2023-07-31T04:57:14;6.90;;;2.30;;
11111;SDS011;5609;49.466;8.468;2023-07-31T04:59:41;4.60;;;2.53;;
11111;SDS011;5609;49.466;8.468;2023-07-31T05:02:08;3.90;;;2.30;;
11111;SDS011;5609;49.466;8.468;2023-07-31T05:04:35;5.33;;;2.20;;
11111;SDS011;5609;49.466;8.468;2023-07-31T05:07:03;4.73;;;2.40;;
11111;SDS011;5609;49.466;8.468;2023-07-31T05:09:31;5.07;;;2.23;;
11111;SDS011;5609;49.466;8.468;2023-07-31T05:11:58;6.50;;;2.50;;
11111;SDS011;5609;49.466;8.468;2023-07-31T05:14:25;3.93;;;2.40;;
11111;SDS011;5609;49.466;8.468;2023-07-31T05:16:52;4.80;;;2.53;;
11111;SDS011;5609;49.466;8.468;2023-07-31T05:19:19;3.63;;;2.50;;
11111;SDS011;5609;49.466;8.468;2023-07-31T05:21:46;4.73;;;2.40;;
11111;SDS011;5609;49.466;8.468;2023-07-31T05:24:13;4.57;;;2.20;;
11111;SDS011;5609;49.466;8.468;2023-07-31T05:26:42;5.90;;;2.50;;
11111;SDS011;5609;49.466;8.468;2023-07-31T05:29:09;6.13;;;2.40;;
11111;SDS011;5609;49.466;8.468;2023-07-31T05:31:36;6.27;;;2.37;;
11111;SDS011;5609;49.466;8.468;2023-07-31T05:34:03;6.90;;;2.43;;
11111;SDS011;5609;49.466;8.468;2023-07-31T05:36:30;5.07;;;2.47;;
11111;SDS011;5609;49.466;8.468;2023-07-31T05:38:57;4.27;;;2.30;;
11111;SDS011;5609;49.466;8.468;2023-07-31T05:41:24;3.43;;;2.13;;
11111;SDS011;5609;49.466;8.468;2023-07-31T05:43:52;3.33;;;2.20;;
11111;SDS011;5609;49.466;8.468;2023-07-31T05:46:20;4.20;;;2.30;;
11111;SDS011;5609;49.466;8.468;2023-07-31T05:48:47;5.80;;;2.33;;
11111;SDS011;5609;49.466;8.468;2023-07-31T05:51:14;5.50;;;2.33;;
11111;SDS011;5609;49.466;8.468;2023-07-31T05:53:41;4.83;;;2.20;;
11111;SDS011;5609;49.466;8.468;2023-07-31T05:56:08;5.03;;;2.40;;
11111;SDS011;5609;49.466;8.468;2023-07-31T05:58:35;4.43;;;2.37;;
11111;SDS011;5609;49.466;8.468;2023-07-31T06:01:04;3.20;;;2.30;;
11111;SDS011;5609;49.466;8.468;2023-07-31T06:03:31;4.77;;;2.40;;
11111;SDS011;5609;49.466;8.468;2023-07-31T06:05:58;4.83;;;2.40;;
11111;SDS011;5609;49.466;8.468;2023-07-31T06:08:25;5.57;;;2.50;;
11111;SDS011;5609;49.466;8.468;2023-07-31T06:10:52;3.87;;;2.20;;
11111;SDS011;5609;49.466;8.468;2023-07-31T06:13:19;6.20;;;2.37;;
11111;SDS011;5609;49.466;8.468;2023-07-31T06:15:46;4.17;;;2.50;;
11111;SDS011;5609;49.466;8.468;2023-07-31T06:18:14;3.63;;;2.43;;
11111;SDS011;5609;49.466;8.468;2023-07-31T06:20:41;4.60;;;2.30;;
11111;SDS011;5609;49.466;8.468;2023-07-31T06:23:08;4.07;;;2.30;;
11111;SDS011;5609;49.466;8.468;2023-07-31T06:25:35;6.40;;;2.60;;
11111;SDS011;5609;49.466;8.468;2023-07-31T06:28:02;5.30;;;2.33;;
11111;SDS011;5609;49.466;8.468;2023-07-31T06:30:30;4.73;;;2.17;;
11111;SDS011;5609;49.466;8.468;2023-07-31T06:32:57;4.57;;;2.73;;
11111;SDS011;5609;49.466;8.468;2023-07-31T06:35:25;3.83;;;2.30;;
11111;SDS011;5609;49.466;8.468;2023-07-31T06:37:52;5.63;;;2.77;;
11111;SDS011;5609;49.466;8.468;2023-07-31T06:40:19;5.93;;;2.53;;
11111;SDS011;5609;49.466;8.468;2023-07-31T06:42:46;4.83;;;2.20;;
11111;SDS011;5609;49.466;8.468;2023-07-31T06:45:13;4.23;;;2.40;;
11111;SDS011;5609;49.466;8.468;2023-07-31T06:47:40;6.57;;;2.50;;
11111;SDS011;5609;49.466;8.468;2023-07-31T06:50:07;4.10;;;2.20;;
11111;SDS011;5609;49.466;8.468;2023-07-31T06:52:36;4.57;;;2.33;;
11111;SDS011;5609;49.466;8.468;2023-07-31T06:55:03;5.13;;;2.57;;
11111;SDS011;5609;49.466;8.468;2023-07-31T06:57:30;4.50;;;2.50;;
11111;SDS011;5609;49.466;8.468;2023-07-31T06:59:58;7.07;;;2.50;;
11111;SDS011;5609;49.466;8.468;2023-07-31T07:02:25;5.07;;;2.43;;
11111;SDS011;5609;49.466;8.468;2023-07-31T07:04:52;3.33;;;2.00;;
11111;SDS011;5609;49.466;8.468;2023-07-31T07:07:19;3.53;;;2.33;;
11111;SDS011;5609;49.466;8.468;2023-07-31T07:09:47;5.43;;;2.50;;
11111;SDS011;5609;49.466;8.468;2023-07-31T07:12:14;6.10;;;2.70;;
11111;SDS011;5609;49.466;8.468;2023-07-31T07:14:41;4.80;;;2.50;;
11111;SDS011;5609;49.466;8.468;2023-07-31T07:17:10;4.30;;;2.37;;
11111;SDS011;5609;49.466;8.468;2023-07-31T07:19:39;4.07;;;2.30;;
11111;SDS011;5609;49.466;8.468;2023-07-31T07:22:06;4.53;;;2.50;;
11111;SDS011;5609;49.466;8.468;2023-07-31T07:24:33;6.60;;;2.40;;
11111;SDS011;5609;49.466;8.468;2023-07-31T07:27:02;5.03;;;2.33;;
11111;SDS011;5609;49.466;8.468;2023-07-31T07:29:29;5.40;;;2.63;;
11111;SDS011;5609;49.466;8.468;2023-07-31T07:31:56;4.60;;;2.33;;
11111;SDS011;5609;49.466;8.468;2023-07-31T07:34:24;4.23;;;2.50;;
11111;SDS011;5609;49.466;8.468;2023-07-31T07:36:51;4.70;;;2.60;;
11111;SDS011;5609;49.466;8.468;2023-07-31T07:39:18;5.30;;;2.37;;
11111;SDS011;5609;49.466;8.468;2023-07-31T07:41:45;5.20;;;2.40;;
11111;SDS011;5609;49.466;8.468;2023-07-31T07:44:13;4.63;;;2.47;;
11111;SDS011;5609;49.466;8.468;2023-07-31T07:46:40;3.83;;;2.50;;
11111;SDS011;5609;49.466;8.468;2023-07-31T07:49:07;5.87;;;2.60;;
11111;SDS011;5609;49.466;8.468;2023-07-31T07:51:34;4.87;;;2.53;;
11111;SDS011;5609;49.466;8.468;2023-07-31T07:54:02;3.60;;;2.37;;
11111;SDS011;5609;49.466;8.468;2023-07-31T07:56:29;4.03;;;2.53;;
11111;SDS011;5609;49.466;8.468;2023-07-31T07:58:56;4.90;;;2.53;;
11111;SDS011;5609;49.466;8.468;2023-07-31T08:01:24;3.93;;;2.40;;
11111;SDS011;5609;49.466;8.468;2023-07-31T08:03:51;4.67;;;2.53;;
11111;SDS011;5609;49.466;8.468;2023-07-31T08:06:18;4.60;;;2.30;;
11111;SDS011;5609;49.466;8.468;2023-07-31T08:08:45;5.00;;;2.67;;
11111;SDS011;5609;49.466;8.468;2023-07-31T08:11:12;3.97;;;2.50;;
11111;SDS011;5609;49.466;8.468;2023-07-31T08:13:39;5.00;;;2.67;;
11111;SDS011;5609;49.466;8.468;2023-07-31T08:16:06;5.37;;;2.27;;
11111;SDS011;5609;49.466;8.468;2023-07-31T08:18:35;4.60;;;2.40;;
11111;SDS011;5609;49.466;8.468;2023-07-31T08:21:02;4.60;;;2.50;;
11111;SDS011;5609;49.466;8.468;2023-07-31T08:23:29;4.03;;;2.50;;
11111;SDS011;5609;49.466;8.468;2023-07-31T08:25:56;5.03;;;2.50;;
11111;SDS011;5609;49.466;8.468;2023-07-31T08:28:23;4.70;;;3.00;;
11111;SDS011;5609;49.466;8.468;2023-07-31T08:30:50;5.33;;;2.40;;
11111;SDS011;5609;49.466;8.468;2023-07-31T08:33:17;6.90;;;2.80;;
11111;SDS011;5609;49.466;8.468;2023-07-31T08:35:45;4.17;;;2.60;;
11111;SDS011;5609;49.466;8.468;2023-07-31T08:38:13;2.93;;;2.30;;
11111;SDS011;5609;49.466;8.468;2023-07-31T08:40:40;5.63;;;2.60;;
11111;SDS011;5609;49.466;8.468;2023-07-31T08:43:08;6.77;;;2.53;;
11111;SDS011;5609;49.466;8.468;2023-07-31T08:45:35;4.50;;;2.53;;
11111;SDS011;5609;49.466;8.468;2023-07-31T08:48:02;4.97;;;2.40;;
11111;SDS011;5609;49.466;8.468;2023-07-31T08:50:29;5.37;;;2.60;;
11111;SDS011;5609;49.466;8.468;2023-07-31T08:52:58;4.30;;;2.30;;
11111;SDS011;5609;49.466;8.468;2023-07-31T08:55:25;3.70;;;2.27;;
11111;SDS011;5609;49.466;8.468;2023-07-31T08:57:52;5.87;;;2.53;;
11111;SDS011;5609;49.466;8.468;2023-07-31T09:00:20;5.03;;;2.57;;
11111;SDS011;5609;49.466;8.468;2023-07-31T09:02:51;5.70;;;2.40;;
11111;SDS011;5609;49.466;8.468;2023-07-31T09:05:19;3.80;;;2.30;;
11111;SDS011;5609;49.466;8.468;2023-07-31T09:07:47;4.47;;;2.50;;
11111;SDS011;5609;49.466;8.468;2023-07-31T09:10:15;4.20;;;2.50;;
11111;SDS011;5609;49.466;8.468;2023-07-31T09:12:42;6.53;;;2.77;;
11111;SDS011;5609;49.466;8.468;2023-07-31T09:15:10;5.33;;;2.57;;
11111;SDS011;5609;49.466;8.468;2023-07-31T09:17:37;6.07;;;2.53;;
11111;SDS011;5609;49.466;8.468;2023-07-31T09:20:12;5.00;;;2.73;;
11111;SDS011;5609;49.466;8.468;2023-07-31T09:22:39;3.27;;;2.70;;
11111;SDS011;5609;49.466;8.468;2023-07-31T09:25:17;3.83;;;2.27;;
11111;SDS011;5609;49.466;8.468;2023-07-31T09:27:48;4.53;;;2.63;;
11111;SDS011;5609;49.466;8.468;2023-07-31T09:30:16;3.77;;;2.60;;
11111;SDS011;5609;49.466;8.468;2023-07-31T09:32:43;3.97;;;2.43;;
11111;SDS011;5609;49.466;8.468;2023-07-31T09:35:14;5.47;;;2.67;;
11111;SDS011;5609;49.466;8.468;2023-07-31T09:37:47;6.40;;;2.90;;
11111;SDS011;5609;49.466;8.468;2023-07-31T09:40:25;4.57;;;2.70;;
11111;SDS011;5609;49.466;8.468;2023-07-31T09:42:52;4.97;;;2.90;;
11111;SDS011;5609;49.466;8.468;2023-07-31T09:45:19;6.57;;;2.50;;
11111;SDS011;5609;49.466;8.468;2023-07-31T09:47:46;5.13;;;2.60;;
11111;SDS011;5609;49.466;8.468;2023-07-31T09:50:14;5.50;;;2.60;;
11111;SDS011;5609;49.466;8.468;2023-07-31T09:52:41;5.10;;;2.70;;
11111;SDS011;5609;49.466;8.468;2023-07-31T09:55:09;4.63;;;2.60;;
11111;SDS011;5609;49.466;8.468;2023-07-31T09:57:37;4.77;;;2.73;;
11111;SDS011;5609;49.466;8.468;2023-07-31T10:00:06;5.73;;;2.80;;
11111;SDS011;5609;49.466;8.468;2023-07-31T10:02:35;5.73;;;3.03;;
11111;SDS011;5609;49.466;8.468;2023-07-31T10:05:03;5.17;;;2.50;;
11111;SDS011;5609;49.466;8.468;2023-07-31T10:07:31;4.87;;;2.90;;
11111;SDS011;5609;49.466;8.468;2023-07-31T10:09:58;5.53;;;3.00;;
11111;SDS011;5609;49.466;8.468;2023-07-31T10:12:26;5.33;;;2.77;;
11111;SDS011;5609;49.466;8.468;2023-07-31T10:14:55;4.73;;;2.63;;
11111;SDS011;5609;49.466;8.468;2023-07-31T10:17:22;5.60;;;2.73;;
11111;SDS011;5609;49.466;8.468;2023-07-31T10:19:49;5.03;;;2.77;;
11111;SDS011;5609;49.466;8.468;2023-07-31T10:22:18;6.33;;;3.03;;
11111;SDS011;5609;49.466;8.468;2023-07-31T10:24:45;5.57;;;3.10;;
11111;SDS011;5609;49.466;8.468;2023-07-31T10:27:12;6.43;;;2.83;;
11111;SDS011;5609;49.466;8.468;2023-07-31T10:29:40;3.63;;;2.77;;
11111;SDS011;5609;49.466;8.468;2023-07-31T10:32:09;4.23;;;3.03;;
11111;SDS011;5609;49.466;8.468;2023-07-31T10:34:38;4.40;;;2.97;;
11111;SDS011;5609;49.466;8.468;2023-07-31T10:37:24;5.03;;;2.80;;
11111;SDS011;5609;49.466;8.468;2023-07-31T10:39:59;5.23;;;2.80;;
11111;SDS011;5609;49.466;8.468;2023-07-31T10:42:30;4.60;;;2.93;;
11111;SDS011;5609;49.466;8.468;2023-07-31T10:44:58;5.60;;;2.83;;
11111;SDS011;5609;49.466;8.468;2023-07-31T10:47:26;5.00;;;2.77;;
11111;SDS011;5609;49.466;8.468;2023-07-31T10:52:35;4.23;;;2.80;;
11111;SDS011;5609;49.466;8.468;2023-07-31T10:57:48;6.17;;;3.57;;
11111;SDS011;5609;49.466;8.468;2023-07-31T11:00:19;5.60;;;2.80;;
11111;SDS011;5609;49.466;8.468;2023-07-31T11:02:57;6.47;;;3.10;;
11111;SDS011;5609;49.466;8.468;2023-07-31T11:08:09;6.07;;;3.13;;
11111;SDS011;5609;49.466;8.468;2023-07-31T11:10:37;5.63;;;3.00;;
11111;SDS011;5609;49.466;8.468;2023-07-31T11:13:04;4.77;;;2.90;;
11111;SDS011;5609;49.466;8.468;2023-07-31T11:15:31;4.37;;;3.00;;
11111;SDS011;5609;49.466;8.468;2023-07-31T11:17:59;4.87;;;2.80;;
11111;SDS011;5609;49.466;8.468;2023-07-31T11:20:29;5.13;;;3.00;;
11111;SDS011;5609;49.466;8.468;2023-07-31T11:22:57;4.00;;;2.70;;
11111;SDS011;5609;49.466;8.468;2023-07-31T11:25:25;5.53;;;2.87;;
11111;SDS011;5609;49.466;8.468;2023-07-31T11:27:51;5.47;;;2.67;;
11111;SDS011;5609;49.466;8.468;2023-07-31T11:30:21;3.60;;;2.80;;
11111;SDS011;5609;49.466;8.468;2023-07-31T11:32:48;5.03;;;2.77;;
11111;SDS011;5609;49.466;8.468;2023-07-31T11:35:17;5.60;;;3.10;;
11111;SDS011;5609;49.466;8.468;2023-07-31T11:37:44;4.43;;;2.90;;
11111;SDS011;5609;49.466;8.468;2023-07-31T11:40:11;4.67;;;2.60;;
11111;SDS011;5609;49.466;8.468;2023-07-31T11:42:38;5.40;;;2.70;;
11111;SDS011;5609;49.466;8.468;2023-07-31T11:45:06;5.67;;;3.03;;
11111;SDS011;5609;49.466;8.468;2023-07-31T11:47:33;6.53;;;2.83;;
11111;SDS011;5609;49.466;8.468;2023-07-31T11:50:01;4.90;;;2.97;;
11111;SDS011;5609;49.466;8.468;2023-07-31T11:52:30;5.20;;;2.90;;
11111;SDS011;5609;49.466;8.468;2023-07-31T11:54:58;4.90;;;3.27;;
11111;SDS011;5609;49.466;8.468;2023-07-31T11:57:25;5.13;;;2.83;;
11111;SDS011;5609;49.466;8.468;2023-07-31T11:59:52;5.10;;;3.10;;
11111;SDS011;5609;49.466;8.468;2023-07-31T12:02:19;4.13;;;2.90;;
11111;SDS011;5609;49.466;8.468;2023-07-31T12:04:47;6.87;;;3.00;;
11111;SDS011;5609;49.466;8.468;2023-07-31T12:07:14;4.20;;;3.07;;
11111;SDS011;5609;49.466;8.468;2023-07-31T12:09:51;4.30;;;2.80;;
11111;SDS011;5609;49.466;8.468;2023-07-31T12:12:19;4.77;;;2.60;;
11111;SDS011;5609;49.466;8.468;2023-07-31T12:14:46;4.90;;;3.00;;
11111;SDS011;5609;49.466;8.468;2023-07-31T12:17:13;6.17;;;2.97;;
11111;SDS011;5609;49.466;8.468;2023-07-31T12:19:41;3.87;;;2.60;;
11111;SDS011;5609;49.466;8.468;2023-07-31T12:22:11;5.70;;;3.00;;
11111;SDS011;5609;49.466;8.468;2023-07-31T12:24:39;4.43;;;3.00;;
11111;SDS011;5609;49.466;8.468;2023-07-31T12:27:10;4.87;;;2.83;;
11111;SDS011;5609;49.466;8.468;2023-07-31T12:29:38;4.43;;;2.90;;
11111;SDS011;5609;49.466;8.468;2023-07-31T12:32:17;6.03;;;3.17;;
11111;SDS011;5609;49.466;8.468;2023-07-31T12:34:44;5.83;;;2.80;;
11111;SDS011;5609;49.466;8.468;2023-07-31T12:37:11;3.90;;;2.77;;
11111;SDS011;5609;49.466;8.468;2023-07-31T12:39:38;3.70;;;2.73;;
11111;SDS011;5609;49.466;8.468;2023-07-31T12:42:06;4.97;;;3.00;;
11111;SDS011;5609;49.466;8.468;2023-07-31T12:44:34;4.40;;;3.00;;
11111;SDS011;5609;49.466;8.468;2023-07-31T12:47:01;4.37;;;3.00;;
11111;SDS011;5609;49.466;8.468;2023-07-31T12:49:29;5.37;;;2.93;;
11111;SDS011;5609;49.466;8.468;2023-07-31T12:51:56;5.50;;;3.10;;
11111;SDS011;5609;49.466;8.468;2023-07-31T12:54:23;6.67;;;3.20;;
11111;SDS011;5609;49.466;8.468;2023-07-31T12:56:50;4.33;;;2.80;;
11111;SDS011;5609;49.466;8.468;2023-07-31T12:59:17;4.70;;;2.60;;
11111;SDS011;5609;49.466;8.468;2023-07-31T13:01:45;5.10;;;2.70;;
11111;SDS011;5609;49.466;8.468;2023-07-31T13:04:12;6.70;;;2.90;;
11111;SDS011;5609;49.466;8.468;2023-07-31T13:06:39;4.13;;;2.70;;
11111;SDS011;5609;49.466;8.468;2023-07-31T13:09:06;3.93;;;2.60;;
11111;SDS011;5609;49.466;8.468;2023-07-31T13:11:34;4.37;;;2.70;;
11111;SDS011;5609;49.466;8.468;2023-07-31T13:14:01;4.93;;;2.40;;
11111;SDS011;5609;49.466;8.468;2023-07-31T13:16:28;5.20;;;2.80;;
11111;SDS011;5609;49.466;8.468;2023-07-31T13:18:56;6.20;;;3.00;;
11111;SDS011;5609;49.466;8.468;2023-07-31T13:21:23;5.00;;;2.97;;
11111;SDS011;5609;49.466;8.468;2023-07-31T13:23:50;4.23;;;2.30;;
11111;SDS011;5609;49.466;8.468;2023-07-31T13:26:17;3.70;;;2.50;;
11111;SDS011;5609;49.466;8.468;2023-07-31T13:28:44;3.47;;;2.80;;
11111;SDS011;5609;49.466;8.468;2023-07-31T13:31:11;4.30;;;2.60;;
11111;SDS011;5609;49.466;8.468;2023-07-31T13:33:38;5.20;;;2.70;;
11111;SDS011;5609;49.466;8.468;2023-07-31T13:36:07;5.70;;;2.83;;
11111;SDS011;5609;49.466;8.468;2023-07-31T13:38:34;3.90;;;2.70;;
11111;SDS011;5609;49.466;8.468;2023-07-31T13:41:01;4.80;;;2.87;;
11111;SDS011;5609;49.466;8.468;2023-07-31T13:43:30;4.87;;;3.00;;
11111;SDS011;5609;49.466;8.468;2023-07-31T13:45:57;4.33;;;2.70;;
11111;SDS011;5609;49.466;8.468;2023-07-31T13:48:29;4.30;;;2.80;;
11111;SDS011;5609;49.466;8.468;2023-07-31T13:50:56;3.80;;;2.80;;
11111;SDS011;5609;49.466;8.468;2023-07-31T13:53:24;5.17;;;2.70;;
11111;SDS011;5609;49.466;8.468;2023-07-31T13:55:51;4.77;;;2.67;;
11111;SDS011;5609;49.466;8.468;2023-07-31T13:58:18;3.87;;;2.67;;
11111;SDS011;5609;49.466;8.468;2023-07-31T14:00:45;5.83;;;2.90;;
11111;SDS011;5609;49.466;8.468;2023-07-31T14:03:12;4.83;;;3.00;;
11111;SDS011;5609;49.466;8.468;2023-07-31T14:05:39;3.17;;;2.40;;
11111;SDS011;5609;49.466;8.468;2023-07-31T14:08:06;4.33;;;2.87;;
11111;SDS011;5609;49.466;8.468;2023-07-31T14:10:34;5.87;;;2.83;;
11111;SDS011;5609;49.466;8.468;2023-07-31T14:13:02;4.93;;;2.77;;
11111;SDS011;5609;49.466;8.468;2023-07-31T14:15:29;4.73;;;2.70;;
11111;SDS011;5609;49.466;8.468;2023-07-31T14:17:57;3.13;;;2.70;;
11111;SDS011;5609;49.466;8.468;2023-07-31T14:20:24;6.57;;;3.17;;
11111;SDS011;5609;49.466;8.468;2023-07-31T14:22:51;6.43;;;2.97;;
11111;SDS011;5609;49.466;8.468;2023-07-31T14:25:18;6.67;;;3.07;;
11111;SDS011;5609;49.466;8.468;2023-07-31T14:27:46;6.87;;;3.27;;
11111;SDS011;5609;49.466;8.468;2023-07-31T14:30:13;4.97;;;3.20;;
11111;SDS011;5609;49.466;8.468;2023-07-31T14:32:41;6.07;;;2.93;;
11111;SDS011;5609;49.466;8.468;2023-07-31T14:35:08;5.53;;;3.00;;
11111;SDS011;5609;49.466;8.468;2023-07-31T14:37:38;5.80;;;2.73;;
11111;SDS011;5609;49.466;8.468;2023-07-31T14:40:06;5.07;;;3.17;;
11111;SDS011;5609;49.466;8.468;2023-07-31T14:42:34;6.17;;;3.03;;
11111;SDS011;5609;49.466;8.468;2023-07-31T14:45:02;6.37;;;2.93;;
11111;SDS011;5609;49.466;8.468;2023-07-31T14:47:30;4.70;;;2.97;;
11111;SDS011;5609;49.466;8.468;2023-07-31T14:49:57;4.90;;;2.70;;
11111;SDS011;5609;49.466;8.468;2023-07-31T14:52:24;5.17;;;2.60;;
11111;SDS011;5609;49.466;8.468;2023-07-31T14:54:51;4.87;;;2.80;;
11111;SDS011;5609;49.466;8.468;2023-07-31T14:57:18;4.83;;;2.90;;
11111;SDS011;5609;49.466;8.468;2023-07-31T14:59:46;4.67;;;2.80;;
11111;SDS011;5609;49.466;8.468;2023-07-31T15:02:14;4.87;;;2.70;;
11111;SDS011;5609;49.466;8.468;2023-07-31T15:04:41;3.80;;;2.90;;
11111;SDS011;5609;49.466;8.468;2023-07-31T15:07:08;3.57;;;2.50;;
11111;SDS011;5609;49.466;8.468;2023-07-31T15:09:35;4.53;;;2.60;;
11111;SDS011;5609;49.466;8.468;2023-07-31T15:12:02;4.40;;;2.93;;